Isle of Harris, United Kingdom
Current Conditions -  °F | °C
As of 4:20 PM on Saturday 20 Dec 2014 (Local Time) from EGPO Reporting Station
Clear Clear  
Wind Chill: 36°   Ceiling: Unl
Heat Index: 41°   Visibility: 6mi
Dew Point: 36°   Wind: 8mph
Humidity: 81%   Direction: 230°SW
Pressure: 30.09"   Gusts: NA
Location:  57.99°N, 6.75°W
Report Text: EGPO 201620Z AUTO 23007KT 9999 NCD 05/02 Q1019
Loading
Personal Weather Stations






























Interactive Weather Map New forecast layout! Learn more

10-Day Weather Forecast

Advertisements
Track Severe Weather on mobile